Terminal Aerodrome Forecast
Issued by NWS Charleston, SC

Home | Current Version | Previous Version | Text Only | Print | Product List | Glossary On
Versions: 1 2 3 4 5 6 7 8 9 10 11 12 13
000
FTUS42 KCHS 272300
TAFSAV
TAF
KSAV 272334Z 2800/2824 VRB03KT P6SM SCT035
     FM280930 00000KT 1 1/2SM BR BKN005
     FM281500 23006KT 5SM BR BKN007
     FM281630 23006KT P6SM BKN015
     FM281900 21006KT P6SM SCT025=

USA.gov is the U.S. government's official web portal to all federal, state and local government web resources and services.